]idnight River — HP7399 — position and weather

sailwx.info

Track history (hours):
 
Tides and Currents Weather Stations Pressure Air Temp Water Temp Dewpoint Dewpoint Depression Visibility Wind Speed Wind Dir Waves Ship Positions

]idnight River

Last reported at 2014-Sep-18 03:26 UTC. Time now 2014-Sep-20 22:05 UTC.
Position N 17°41' W 063°16'.

MMSI: 352319000.

Date/timePositionNaut miles runAvg speedWind from/ knotsBaromVisibWave heightAir tempDewpointWater temp
2014-Sep-18 03:26N 17°41' W 063°16'67 9.1
2014-Sep-17 20:05N 16°56' W 062°24'79 3.1
2014-Sep-16 18:23N 18°03' W 063°09'4 4.8
2014-Sep-16 17:32N 18°05' W 063°05'0 0.0
2014-Sep-16 16:32N 18°05' W 063°05'5 5.2
2014-Sep-16 15:32N 18°08' W 063°10'3 0.8
2014-Sep-16 11:24N 18°11' W 063°09'5 6.0
2014-Sep-16 10:33N 18°06' W 063°07'2 2.4
2014-Sep-16 09:33N 18°05' W 063°05'0 0.0
2014-Sep-16 08:27N 18°05' W 063°05'0 0.0
2014-Sep-16 07:32N 18°05' W 063°05'0 0.0
2014-Sep-16 06:33N 18°05' W 063°05'0 0.0
2014-Sep-16 05:33N 18°05' W 063°05'0 0.0
2014-Sep-16 04:22N 18°05' W 063°05'0 0.0
2014-Sep-16 03:26N 18°05' W 063°05'0 0.0
2014-Sep-16 02:30N 18°05' W 063°05'0 0.0
2014-Sep-16 01:30N 18°05' W 063°05'0 0.0
2014-Sep-16 00:30N 18°05' W 063°05'0 0.2
2014-Sep-15 23:19N 18°05' W 063°05'0 0.0
2014-Sep-15 22:24N 18°05' W 063°05'6 6.6
2014-Sep-15 21:33N 18°08' W 063°10'4 0.7
2014-Sep-15 16:05N 18°12' W 063°10'5 9.5
2014-Sep-15 15:33N 18°12' W 063°16'  
2014-Sep-11 14:33N 17°55' W 063°08'10 8.4
2014-Sep-11 13:22N 18°05' W 063°08'2 2.8
2014-Sep-11 12:31N 18°05' W 063°05'3 3.3
2014-Sep-11 11:30N 18°06' W 063°08'9 9.5
2014-Sep-11 10:32N 18°08' W 063°18'9 9.2
2014-Sep-11 09:33N 18°10' W 063°27'1 0.0
2014-Sep-10 01:31N 18°10' W 063°26'9 9.4
2014-Sep-10 00:31N 18°08' W 063°17'10 9.8
2014-Sep-09 23:31N 18°05' W 063°07'2 1.6
2014-Sep-09 22:32N 18°05' W 063°05'0 0.0
2014-Sep-09 21:26N 18°05' W 063°05'0 0.0
2014-Sep-09 20:27N 18°05' W 063°05'0 0.0
2014-Sep-09 19:28N 18°05' W 063°05'0 0.0
2014-Sep-09 18:22N 18°05' W 063°05'0 0.0
2014-Sep-09 17:33N 18°05' W 063°05'0 0.0
2014-Sep-09 16:17N 18°05' W 063°05'0 0.2
2014-Sep-09 15:17N 18°05' W 063°05'6 8.1
2014-Sep-09 14:32N 18°09' W 063°10'5 1.2
2014-Sep-09 10:20N 18°12' W 063°14'6 8.2
2014-Sep-09 09:33N 18°12' W 063°21'  
Track history (hours):
 
Tides and Currents Weather Stations Pressure Air Temp Water Temp Dewpoint Dewpoint Depression Visibility Wind Speed Wind Dir Waves Ship Positions

]idnight River

Last reported at 2014-Sep-18 03:26 UTC. Time now 2014-Sep-20 22:05 UTC.
Position N 17°41' W 063°16'.

MMSI: 352319000.

Date/timePositionNaut miles runAvg speedWind from/ knotsBaromVisibWave heightAir tempDewpointWater temp
2014-Sep-18 03:26N 17°41' W 063°16'67 9.1
2014-Sep-17 20:05N 16°56' W 062°24'79 3.1
2014-Sep-16 18:23N 18°03' W 063°09'4 4.8
2014-Sep-16 17:32N 18°05' W 063°05'0 0.0
2014-Sep-16 16:32N 18°05' W 063°05'5 5.2
2014-Sep-16 15:32N 18°08' W 063°10'3 0.8
2014-Sep-16 11:24N 18°11' W 063°09'5 6.0
2014-Sep-16 10:33N 18°06' W 063°07'2 2.4
2014-Sep-16 09:33N 18°05' W 063°05'0 0.0
2014-Sep-16 08:27N 18°05' W 063°05'0 0.0
2014-Sep-16 07:32N 18°05' W 063°05'0 0.0
2014-Sep-16 06:33N 18°05' W 063°05'0 0.0
2014-Sep-16 05:33N 18°05' W 063°05'0 0.0
2014-Sep-16 04:22N 18°05' W 063°05'0 0.0
2014-Sep-16 03:26N 18°05' W 063°05'0 0.0
2014-Sep-16 02:30N 18°05' W 063°05'0 0.0
2014-Sep-16 01:30N 18°05' W 063°05'0 0.0
2014-Sep-16 00:30N 18°05' W 063°05'0 0.2
2014-Sep-15 23:19N 18°05' W 063°05'0 0.0
2014-Sep-15 22:24N 18°05' W 063°05'6 6.6
2014-Sep-15 21:33N 18°08' W 063°10'4 0.7
2014-Sep-15 16:05N 18°12' W 063°10'5 9.5
2014-Sep-15 15:33N 18°12' W 063°16'  
2014-Sep-11 14:33N 17°55' W 063°08'10 8.4
2014-Sep-11 13:22N 18°05' W 063°08'2 2.8
2014-Sep-11 12:31N 18°05' W 063°05'3 3.3
2014-Sep-11 11:30N 18°06' W 063°08'9 9.5
2014-Sep-11 10:32N 18°08' W 063°18'9 9.2
2014-Sep-11 09:33N 18°10' W 063°27'1 0.0
2014-Sep-10 01:31N 18°10' W 063°26'9 9.4
2014-Sep-10 00:31N 18°08' W 063°17'10 9.8
2014-Sep-09 23:31N 18°05' W 063°07'2 1.6
2014-Sep-09 22:32N 18°05' W 063°05'0 0.0
2014-Sep-09 21:26N 18°05' W 063°05'0 0.0
2014-Sep-09 20:27N 18°05' W 063°05'0 0.0
2014-Sep-09 19:28N 18°05' W 063°05'0 0.0
2014-Sep-09 18:22N 18°05' W 063°05'0 0.0
2014-Sep-09 17:33N 18°05' W 063°05'0 0.0
2014-Sep-09 16:17N 18°05' W 063°05'0 0.2
2014-Sep-09 15:17N 18°05' W 063°05'6 8.1
2014-Sep-09 14:32N 18°09' W 063°10'5 1.2
2014-Sep-09 10:20N 18°12' W 063°14'6 8.2
2014-Sep-09 09:33N 18°12' W 063°21'  

Dump ship's entire track history